Guenther Schulte — VRGK8 — position and weather

sailwx.info

Track history (hours):
 
Tides and Currents Weather Stations Pressure Air Temp Water Temp Dewpoint Dewpoint Depression Visibility Wind Speed Wind Dir Waves Ship Positions

Guenther Schulte

Last reported at 2015-Mar-16 11:33 UTC. Time now 2015-Mar-26 19:13 UTC.
Position S 36°13' E 175°54'.
Warning: this ship's position is 10 days out of date.

Length 231 m; draft 11.2 m.

Type: Ship (hazmat cat C). MMSI: 477728800.

Date/timePositionNaut miles runAvg speedWind from/ knotsBaromVisibWave heightAir tempDewpointWater temp
2015-Mar-16 11:33S 36°13' E 175°54'2417.2
2015-Mar-16 10:09S 35°53' E 175°37'  
2015-Mar-11 21:26S 37°11' E 150°15'1516.8
2015-Mar-11 20:33S 37°25' E 150°10'1615.8
2015-Mar-11 19:34S 37°39' E 150°01'1616.4
2015-Mar-11 18:33S 37°50' E 149°45'1716.2
2015-Mar-11 17:31S 38°00' E 149°29'2115.8
2015-Mar-11 16:10S 38°14' E 149°08'1016.0
2015-Mar-11 15:33S 38°21' E 148°59'1715.9
2015-Mar-11 14:31S 38°32' E 148°43'1516.0
2015-Mar-11 13:33S 38°41' E 148°27'2015.9
2015-Mar-11 12:19S 38°50' E 148°05'2916.6
2015-Mar-11 10:33S 38°60' E 147°29'1818.3
2015-Mar-11 09:33S 39°06' E 147°08'1818.5
2015-Mar-11 08:34S 39°12' E 146°45'1918.6
2015-Mar-11 07:34S 39°16' E 146°22'1818.2
2015-Mar-11 06:34S 39°11' E 145°59'1918.9
2015-Mar-11 05:34S 39°01' E 145°39'6 0.1
2015-Mar-09 16:30S 38°55' E 145°38'1920.2
2015-Mar-09 15:33S 39°06' E 145°58'1919.3
2015-Mar-09 14:33S 39°12' E 146°22'2120.7
2015-Mar-09 13:33S 39°05' E 146°47'2121.0
2015-Mar-09 12:33S 38°58' E 147°12'8120.2
2015-Mar-09 08:32S 38°29' E 148°50'  
Track history (hours):
 
Tides and Currents Weather Stations Pressure Air Temp Water Temp Dewpoint Dewpoint Depression Visibility Wind Speed Wind Dir Waves Ship Positions

Guenther Schulte

Last reported at 2015-Mar-16 11:33 UTC. Time now 2015-Mar-26 19:13 UTC.
Position S 36°13' E 175°54'.
Warning: this ship's position is 10 days out of date.

Length 231 m; draft 11.2 m.

Type: Ship (hazmat cat C). MMSI: 477728800.

Date/timePositionNaut miles runAvg speedWind from/ knotsBaromVisibWave heightAir tempDewpointWater temp
2015-Mar-16 11:33S 36°13' E 175°54'2417.2
2015-Mar-16 10:09S 35°53' E 175°37'  
2015-Mar-11 21:26S 37°11' E 150°15'1516.8
2015-Mar-11 20:33S 37°25' E 150°10'1615.8
2015-Mar-11 19:34S 37°39' E 150°01'1616.4
2015-Mar-11 18:33S 37°50' E 149°45'1716.2
2015-Mar-11 17:31S 38°00' E 149°29'2115.8
2015-Mar-11 16:10S 38°14' E 149°08'1016.0
2015-Mar-11 15:33S 38°21' E 148°59'1715.9
2015-Mar-11 14:31S 38°32' E 148°43'1516.0
2015-Mar-11 13:33S 38°41' E 148°27'2015.9
2015-Mar-11 12:19S 38°50' E 148°05'2916.6
2015-Mar-11 10:33S 38°60' E 147°29'1818.3
2015-Mar-11 09:33S 39°06' E 147°08'1818.5
2015-Mar-11 08:34S 39°12' E 146°45'1918.6
2015-Mar-11 07:34S 39°16' E 146°22'1818.2
2015-Mar-11 06:34S 39°11' E 145°59'1918.9
2015-Mar-11 05:34S 39°01' E 145°39'6 0.1
2015-Mar-09 16:30S 38°55' E 145°38'1920.2
2015-Mar-09 15:33S 39°06' E 145°58'1919.3
2015-Mar-09 14:33S 39°12' E 146°22'2120.7
2015-Mar-09 13:33S 39°05' E 146°47'2121.0
2015-Mar-09 12:33S 38°58' E 147°12'8120.2
2015-Mar-09 08:32S 38°29' E 148°50'  

Dump ship's entire track history